createdAt,value
2017-05-21T00:00:41.810Z,0
2017-05-21T00:01:42.413Z,0
2017-05-21T00:02:42.100Z,0
2017-05-21T00:03:42.098Z,0
2017-05-21T00:04:42.096Z,0
2017-05-21T00:05:41.781Z,0
2017-05-21T00:06:42.077Z,0
2017-05-21T00:07:41.849Z,0
2017-05-21T00:08:42.376Z,0
2017-05-21T00:09:42.129Z,0
2017-05-21T00:10:42.069Z,0
2017-05-21T00:11:42.053Z,0
2017-05-21T00:12:42.360Z,0
2017-05-21T00:13:42.051Z,0
2017-05-21T00:14:42.349Z,0
2017-05-21T00:15:42.034Z,0
2017-05-21T00:16:42.337Z,0
2017-05-21T00:17:42.033Z,0
2017-05-21T00:18:42.024Z,0
2017-05-21T00:19:42.016Z,0
2017-05-21T00:20:42.012Z,0
2017-05-21T00:21:42.369Z,0
2017-05-21T00:22:42.005Z,0
2017-05-21T00:23:42.307Z,0
2017-05-21T00:24:42.000Z,0
2017-05-21T00:25:41.989Z,0
2017-05-21T00:26:41.983Z,0
2017-05-21T00:27:41.677Z,0
2017-05-21T00:28:41.661Z,0
2017-05-21T00:29:41.354Z,0
2017-05-21T00:30:41.042Z,0
2017-05-21T00:31:41.418Z,0
2017-05-21T00:32:41.647Z,0
2017-05-21T00:33:41.690Z,0
2017-05-21T00:34:41.325Z,0
2017-05-21T00:35:41.931Z,0
2017-05-21T00:36:41.928Z,0
2017-05-21T00:37:41.314Z,0
2017-05-21T00:38:41.613Z,0
2017-05-21T00:39:42.219Z,0
2017-05-21T00:40:41.915Z,0
2017-05-21T00:41:41.905Z,0
2017-05-21T00:42:41.596Z,0
2017-05-21T00:43:41.904Z,0
2017-05-21T00:44:41.942Z,0
2017-05-21T00:45:41.897Z,0
2017-05-21T00:46:42.183Z,0
2017-05-21T00:47:42.193Z,0
2017-05-21T00:48:41.870Z,0
2017-05-21T00:49:42.174Z,0
2017-05-21T00:50:41.555Z,0
2017-05-21T00:51:41.852Z,0
2017-05-21T00:52:41.854Z,0
2017-05-21T00:53:41.845Z,0
2017-05-21T00:54:41.540Z,0
2017-05-21T00:55:42.142Z,0
2017-05-21T00:56:41.524Z,0
2017-05-21T00:57:41.830Z,0
2017-05-21T00:58:41.542Z,0
2017-05-21T00:59:41.605Z,0
2017-05-21T01:00:41.511Z,0
2017-05-21T01:01:41.502Z,0
2017-05-21T01:02:41.192Z,0
2017-05-21T01:03:41.487Z,0
2017-05-21T01:04:41.791Z,0
2017-05-21T01:05:41.176Z,0
2017-05-21T01:06:41.472Z,0
2017-05-21T01:07:42.089Z,0
2017-05-21T01:08:41.463Z,0
2017-05-21T01:09:41.766Z,0
2017-05-21T01:10:41.452Z,0
2017-05-21T01:11:41.754Z,0
2017-05-21T01:12:42.057Z,0
2017-05-21T01:13:41.747Z,0
2017-05-21T01:14:41.738Z,0
2017-05-21T01:15:41.429Z,0
2017-05-21T01:16:41.729Z,0
2017-05-21T01:17:41.729Z,0
2017-05-21T01:18:41.107Z,0
2017-05-21T01:19:41.719Z,0
2017-05-21T01:20:41.707Z,0
2017-05-21T01:21:42.010Z,0
2017-05-21T01:22:41.700Z,0
2017-05-21T01:23:41.701Z,0
2017-05-21T01:24:41.387Z,0
2017-05-21T01:25:41.680Z,0
2017-05-21T01:26:41.069Z,0
2017-05-21T01:27:41.367Z,0
2017-05-21T01:28:40.751Z,0
2017-05-21T01:29:41.668Z,0
2017-05-21T01:30:41.351Z,0
2017-05-21T01:31:41.345Z,0
2017-05-21T01:32:41.353Z,0
2017-05-21T01:33:41.042Z,0
2017-05-21T01:34:41.638Z,0
2017-05-21T01:35:41.327Z,0
2017-05-21T01:36:41.013Z,0
2017-05-21T01:37:41.941Z,0
2017-05-21T01:38:41.323Z,0
2017-05-21T01:39:41.309Z,0
2017-05-21T01:40:41.606Z,0
2017-05-21T01:41:40.987Z,0
2017-05-21T01:42:40.987Z,0
2017-05-21T01:43:41.595Z,0
2017-05-21T01:44:41.589Z,0
2017-05-21T01:45:41.580Z,0
2017-05-21T01:46:41.875Z,0
2017-05-21T01:47:41.584Z,0
2017-05-21T01:48:40.966Z,0
2017-05-21T01:49:41.256Z,0
2017-05-21T01:50:41.551Z,0
2017-05-21T01:51:41.569Z,0
2017-05-21T01:52:41.249Z,0
2017-05-21T01:53:41.861Z,0
2017-05-21T01:54:41.230Z,0
2017-05-21T01:55:40.919Z,0
2017-05-21T01:56:41.524Z,0
2017-05-21T01:57:41.521Z,0
2017-05-21T01:58:41.213Z,0
2017-05-21T01:59:41.916Z,0
2017-05-21T02:00:41.809Z,0
2017-05-21T02:01:41.802Z,0
2017-05-21T02:02:41.807Z,0
2017-05-21T02:03:41.195Z,0
2017-05-21T02:04:41.182Z,0
2017-05-21T02:05:41.475Z,0
2017-05-21T02:06:41.473Z,0
2017-05-21T02:07:41.166Z,0
2017-05-21T02:08:41.169Z,0
2017-05-21T02:09:41.461Z,0
2017-05-21T02:10:41.446Z,0
2017-05-21T02:11:41.139Z,0
2017-05-21T02:12:41.750Z,0
2017-05-21T02:13:41.437Z,0
2017-05-21T02:14:41.130Z,0
2017-05-21T02:15:40.810Z,0
2017-05-21T02:16:41.112Z,0
2017-05-21T02:17:41.118Z,0
2017-05-21T02:18:41.429Z,0
2017-05-21T02:19:41.098Z,0
2017-05-21T02:20:41.394Z,0
2017-05-21T02:21:41.391Z,0
2017-05-21T02:22:40.836Z,0
2017-05-21T02:23:41.396Z,0
2017-05-21T02:24:41.379Z,0
2017-05-21T02:25:41.676Z,0
2017-05-21T02:26:41.732Z,0
2017-05-21T02:27:41.674Z,0
2017-05-21T02:28:41.665Z,0
2017-05-21T02:29:41.659Z,0
2017-05-21T02:30:41.050Z,0
2017-05-21T02:31:41.651Z,0
2017-05-21T02:32:41.641Z,0
2017-05-21T02:33:41.637Z,0
2017-05-21T02:34:41.632Z,0
2017-05-21T02:35:41.632Z,0
2017-05-21T02:36:41.315Z,0
2017-05-21T02:37:41.623Z,0
2017-05-21T02:38:41.611Z,0
2017-05-21T02:39:40.996Z,0
2017-05-21T02:40:40.988Z,0
2017-05-21T02:41:41.292Z,0
2017-05-21T02:42:41.288Z,0
2017-05-21T02:43:40.972Z,0
2017-05-21T02:44:41.278Z,0
2017-05-21T02:45:41.573Z,0
2017-05-21T02:46:41.265Z,0
2017-05-21T02:47:41.261Z,0
2017-05-21T02:48:41.261Z,0
2017-05-21T02:49:41.248Z,0
2017-05-21T02:50:40.935Z,0
2017-05-21T02:51:41.236Z,0
2017-05-21T02:52:40.928Z,0
2017-05-21T02:53:41.236Z,0
2017-05-21T02:54:41.428Z,0
2017-05-21T02:55:41.219Z,0
2017-05-21T02:56:41.222Z,0
2017-05-21T02:57:40.905Z,0
2017-05-21T02:58:40.903Z,0
2017-05-21T02:59:41.196Z,0
2017-05-21T03:00:41.495Z,0
2017-05-21T03:01:41.188Z,0
2017-05-21T03:02:41.184Z,0
2017-05-21T03:03:41.488Z,0
2017-05-21T03:04:41.476Z,0
2017-05-21T03:05:41.475Z,0
2017-05-21T03:06:40.855Z,0
2017-05-21T03:07:41.466Z,0
2017-05-21T03:08:41.461Z,0
2017-05-21T03:09:41.452Z,0
2017-05-21T03:10:41.443Z,0
2017-05-21T03:11:40.834Z,0
2017-05-21T03:12:40.833Z,0
2017-05-21T03:13:40.820Z,0
2017-05-21T03:14:40.813Z,0
2017-05-21T03:15:40.809Z,0
2017-05-21T03:16:40.805Z,0
2017-05-21T03:17:41.109Z,0
2017-05-21T03:18:41.408Z,0
2017-05-21T03:19:41.398Z,0
2017-05-21T03:20:41.450Z,0
2017-05-21T03:21:41.076Z,0
2017-05-21T03:22:40.768Z,0
2017-05-21T03:23:40.161Z,0
2017-05-21T03:24:41.075Z,0
2017-05-21T03:25:41.067Z,0
2017-05-21T03:26:41.362Z,0
2017-05-21T03:27:41.062Z,0
2017-05-21T03:28:41.352Z,0
2017-05-21T03:29:41.047Z,0
2017-05-21T03:30:41.335Z,0
2017-05-21T03:31:40.734Z,0
2017-05-21T03:32:40.103Z,0
2017-05-21T03:33:41.033Z,0
2017-05-21T03:34:41.021Z,0
2017-05-21T03:35:41.315Z,0
2017-05-21T03:36:41.005Z,0
2017-05-21T03:37:40.385Z,0
2017-05-21T03:38:41.001Z,0
2017-05-21T03:39:40.994Z,0
2017-05-21T03:40:40.982Z,0
2017-05-21T03:41:40.974Z,0
2017-05-21T03:42:41.277Z,0
2017-05-21T03:43:40.668Z,5
2017-05-21T03:44:41.272Z,5
2017-05-21T03:45:41.259Z,5
2017-05-21T03:46:40.333Z,5
2017-05-21T03:47:40.335Z,5
2017-05-21T03:48:41.256Z,5
2017-05-21T03:49:40.963Z,5
2017-05-21T03:50:40.622Z,5
2017-05-21T03:51:41.236Z,5
2017-05-21T03:52:40.920Z,5
2017-05-21T03:53:41.227Z,5
2017-05-21T03:54:40.605Z,10
2017-05-21T03:55:40.903Z,10
2017-05-21T03:56:41.209Z,10
2017-05-21T03:57:40.589Z,10
2017-05-21T03:58:40.888Z,10
2017-05-21T03:59:40.880Z,10
2017-05-21T04:00:40.271Z,10
2017-05-21T04:01:40.562Z,15
2017-05-21T04:02:40.565Z,15
2017-05-21T04:03:41.173Z,15
2017-05-21T04:04:40.555Z,15
2017-05-21T04:05:40.545Z,15
2017-05-21T04:06:41.149Z,15
2017-05-21T04:07:40.840Z,15
2017-05-21T04:08:41.139Z,20
2017-05-21T04:09:40.526Z,20
2017-05-21T04:10:41.142Z,20
2017-05-21T04:11:41.126Z,20
2017-05-21T04:12:41.120Z,20
2017-05-21T04:13:41.120Z,25
2017-05-21T04:14:41.111Z,25
2017-05-21T04:15:40.794Z,25
2017-05-21T04:16:40.491Z,25
2017-05-21T04:17:41.102Z,30
2017-05-21T04:18:40.170Z,30
2017-05-21T04:19:41.083Z,30
2017-05-21T04:20:40.765Z,30
2017-05-21T04:21:40.769Z,35
2017-05-21T04:22:41.061Z,35
2017-05-21T04:23:40.763Z,40
2017-05-21T04:24:40.747Z,45
2017-05-21T04:25:40.439Z,50
2017-05-21T04:26:40.738Z,50
2017-05-21T04:27:40.732Z,50
2017-05-21T04:28:40.730Z,50
2017-05-21T04:29:40.420Z,55
2017-05-21T04:30:40.720Z,55
2017-05-21T04:31:40.707Z,55
2017-05-21T04:32:40.709Z,60
2017-05-21T04:33:40.400Z,60
2017-05-21T04:34:40.388Z,60
2017-05-21T04:35:40.692Z,60
2017-05-21T04:36:40.995Z,60
2017-05-21T04:37:40.377Z,65
2017-05-21T04:38:40.372Z,65
2017-05-21T04:39:40.681Z,65
2017-05-21T04:40:40.976Z,65
2017-05-21T04:41:40.662Z,70
2017-05-21T04:42:40.658Z,70
2017-05-21T04:43:40.962Z,70
2017-05-21T04:44:40.648Z,75
2017-05-21T04:45:40.643Z,75
2017-05-21T04:46:40.946Z,75
2017-05-21T04:47:40.634Z,80
2017-05-21T04:48:40.938Z,80
2017-05-21T04:49:40.624Z,85
2017-05-21T04:50:40.613Z,85
2017-05-21T04:51:40.308Z,90
2017-05-21T04:52:40.611Z,90
2017-05-21T04:53:40.608Z,95
2017-05-21T04:54:39.988Z,95
2017-05-21T04:55:39.984Z,100
2017-05-21T04:56:40.591Z,100
2017-05-21T04:57:40.906Z,105
2017-05-21T04:58:40.587Z,110
2017-05-21T04:59:40.276Z,110
2017-05-21T05:00:40.268Z,110
2017-05-21T05:01:40.573Z,115
2017-05-21T05:02:40.263Z,120
2017-05-21T05:03:40.259Z,125
2017-05-21T05:04:40.552Z,130
2017-05-21T05:05:40.246Z,140
2017-05-21T05:06:40.239Z,140
2017-05-21T05:07:40.846Z,145
2017-05-21T05:08:40.543Z,145
2017-05-21T05:09:40.534Z,155
2017-05-21T05:10:40.228Z,165
2017-05-21T05:11:40.223Z,170
2017-05-21T05:12:40.222Z,180
2017-05-21T05:13:40.521Z,190
2017-05-21T05:14:40.517Z,210
2017-05-21T05:15:39.908Z,210
2017-05-21T05:16:40.206Z,220
2017-05-21T05:17:40.510Z,225
2017-05-21T05:18:40.552Z,240
2017-05-21T05:19:40.202Z,255
2017-05-21T05:20:40.501Z,295
2017-05-21T05:21:40.492Z,350
2017-05-21T05:22:40.183Z,390
2017-05-21T05:23:40.493Z,420
2017-05-21T05:24:40.181Z,445
2017-05-21T05:25:40.173Z,455
2017-05-21T05:26:40.779Z,460
2017-05-21T05:27:40.479Z,470
2017-05-21T05:28:40.474Z,480
2017-05-21T05:29:40.169Z,485
2017-05-21T05:30:40.164Z,490
2017-05-21T05:31:40.773Z,495
2017-05-21T05:32:40.460Z,515
2017-05-21T05:33:40.769Z,515
2017-05-21T05:34:40.459Z,520
2017-05-21T05:35:40.762Z,545
2017-05-21T05:36:40.451Z,555
2017-05-21T05:37:40.827Z,550
2017-05-21T05:38:40.145Z,560
2017-05-21T05:39:40.748Z,575
2017-05-21T05:40:40.752Z,570
2017-05-21T05:41:40.794Z,570
2017-05-21T05:42:40.138Z,580
2017-05-21T05:43:40.443Z,595
2017-05-21T05:44:40.747Z,605
2017-05-21T05:45:40.749Z,620
2017-05-21T05:46:40.437Z,620
2017-05-21T05:47:40.428Z,635
2017-05-21T05:48:40.739Z,640
2017-05-21T05:49:40.743Z,640
2017-05-21T05:50:40.429Z,655
2017-05-21T05:51:40.734Z,655
2017-05-21T05:52:40.729Z,660
2017-05-21T05:53:40.427Z,665
2017-05-21T05:54:40.732Z,685
2017-05-21T05:55:40.419Z,680
2017-05-21T05:56:40.724Z,695
2017-05-21T05:57:40.729Z,705
2017-05-21T05:58:39.819Z,700
2017-05-21T05:59:40.421Z,720
2017-05-21T06:00:40.418Z,720
2017-05-21T06:01:40.417Z,730
2017-05-21T06:02:40.427Z,745
2017-05-21T06:03:40.724Z,775
2017-05-21T06:04:40.470Z,810
2017-05-21T06:05:40.414Z,800
2017-05-21T06:06:40.724Z,810
2017-05-21T06:07:40.425Z,815
2017-05-21T06:08:40.425Z,815
2017-05-21T06:09:40.422Z,810
2017-05-21T06:10:40.419Z,800
2017-05-21T06:11:40.420Z,775
2017-05-21T06:12:40.420Z,770
2017-05-21T06:13:40.419Z,750
2017-05-21T06:14:40.422Z,750
2017-05-21T06:15:40.423Z,765
2017-05-21T06:16:40.113Z,765
2017-05-21T06:17:40.732Z,725
2017-05-21T06:18:40.738Z,685
2017-05-21T06:19:39.883Z,670
2017-05-21T06:20:40.124Z,645
2017-05-21T06:21:40.431Z,625
2017-05-21T06:22:40.743Z,605
2017-05-21T06:23:40.434Z,605
2017-05-21T06:24:40.433Z,605
2017-05-21T06:25:40.127Z,605
2017-05-21T06:26:40.436Z,580
2017-05-21T06:27:40.748Z,565
2017-05-21T06:28:40.745Z,560
2017-05-21T06:29:40.751Z,565
2017-05-21T06:30:40.136Z,555
2017-05-21T06:31:39.830Z,565
2017-05-21T06:32:40.813Z,585
2017-05-21T06:33:40.453Z,685
2017-05-21T06:34:40.449Z,830
2017-05-21T06:35:40.144Z,950
2017-05-21T06:36:40.459Z,1015
2017-05-21T06:37:40.766Z,975
2017-05-21T06:38:40.155Z,890
2017-05-21T06:39:40.159Z,855
2017-05-21T06:40:40.159Z,855
2017-05-21T06:41:40.472Z,870
2017-05-21T06:42:40.172Z,895
2017-05-21T06:43:40.785Z,920
2017-05-21T06:44:40.172Z,920
2017-05-21T06:45:40.851Z,925
2017-05-21T06:46:40.789Z,910
2017-05-21T06:47:40.792Z,935
2017-05-21T06:48:40.186Z,935
2017-05-21T06:49:39.875Z,900
2017-05-21T06:50:40.487Z,865
2017-05-21T06:51:40.802Z,885
2017-05-21T06:52:40.503Z,920
2017-05-21T06:53:40.500Z,920
2017-05-21T06:54:40.507Z,920
2017-05-21T06:55:40.812Z,935
2017-05-21T06:56:40.816Z,945
2017-05-21T06:57:40.519Z,920
2017-05-21T06:58:40.823Z,910
2017-05-21T06:59:40.521Z,895
2017-05-21T07:00:40.519Z,885
2017-05-21T07:01:40.523Z,900
2017-05-21T07:02:40.224Z,920
2017-05-21T07:03:40.531Z,915
2017-05-21T07:04:40.535Z,920
2017-05-21T07:05:40.896Z,915
2017-05-21T07:06:39.926Z,905
2017-05-21T07:07:40.545Z,915
2017-05-21T07:08:40.541Z,900
2017-05-21T07:09:40.856Z,865
2017-05-21T07:10:40.860Z,855
2017-05-21T07:11:40.239Z,850
2017-05-21T07:12:40.864Z,875
2017-05-21T07:13:40.862Z,875
2017-05-21T07:14:39.943Z,850
2017-05-21T07:15:39.948Z,850
2017-05-21T07:16:40.564Z,890
2017-05-21T07:17:40.561Z,910
2017-05-21T07:18:39.953Z,865
2017-05-21T07:19:40.873Z,845
2017-05-21T07:20:40.255Z,835
2017-05-21T07:21:40.873Z,815
2017-05-21T07:22:39.969Z,790
2017-05-21T07:23:40.266Z,780
2017-05-21T07:24:40.877Z,775
2017-05-21T07:25:40.577Z,795
2017-05-21T07:26:40.881Z,785
2017-05-21T07:27:40.883Z,785
2017-05-21T07:28:40.881Z,775
2017-05-21T07:29:40.881Z,830
2017-05-21T07:30:40.577Z,835
2017-05-21T07:31:40.576Z,860
2017-05-21T07:32:40.585Z,810
2017-05-21T07:33:40.577Z,760
2017-05-21T07:34:40.879Z,730
2017-05-21T07:35:40.577Z,740
2017-05-21T07:36:40.581Z,735
2017-05-21T07:37:40.884Z,735
2017-05-21T07:38:40.574Z,695
2017-05-21T07:39:40.886Z,530
2017-05-21T07:40:40.882Z,350
2017-05-21T07:41:40.878Z,310
2017-05-21T07:42:40.576Z,290
2017-05-21T07:43:40.883Z,270
2017-05-21T07:44:40.270Z,245
2017-05-21T07:45:40.569Z,230
2017-05-21T07:46:40.879Z,225
2017-05-21T07:47:40.879Z,220
2017-05-21T07:48:40.879Z,210
2017-05-21T07:49:40.878Z,210
2017-05-21T07:50:40.566Z,205
2017-05-21T07:51:40.264Z,200
2017-05-21T07:52:40.881Z,195
2017-05-21T07:53:40.867Z,190
2017-05-21T07:54:40.566Z,185
2017-05-21T07:55:40.569Z,180
2017-05-21T07:56:40.899Z,175
2017-05-21T07:57:40.866Z,170
2017-05-21T07:58:40.560Z,165
2017-05-21T07:59:39.637Z,160
2017-05-21T08:00:40.252Z,160
2017-05-21T08:01:40.556Z,150
2017-05-21T08:02:40.559Z,150
2017-05-21T08:03:40.860Z,145
2017-05-21T08:04:40.240Z,145
2017-05-21T08:05:40.545Z,150
2017-05-21T08:06:40.550Z,140
2017-05-21T08:07:40.850Z,135
2017-05-21T08:08:40.544Z,130
2017-05-21T08:09:40.239Z,130
2017-05-21T08:10:40.541Z,125
2017-05-21T08:11:40.844Z,120
2017-05-21T08:12:40.226Z,115
2017-05-21T08:13:40.855Z,115
2017-05-21T08:14:41.049Z,110
2017-05-21T08:15:40.834Z,110
2017-05-21T08:16:40.835Z,105
2017-05-21T08:17:40.836Z,105
2017-05-21T08:18:40.833Z,100
2017-05-21T08:19:40.211Z,100
2017-05-21T08:20:40.520Z,95
2017-05-21T08:21:40.827Z,95
2017-05-21T08:22:40.211Z,90
2017-05-21T08:23:40.518Z,90
2017-05-21T08:24:40.814Z,85
2017-05-21T08:25:40.813Z,85
2017-05-21T08:26:40.810Z,85
2017-05-21T08:27:40.196Z,85
2017-05-21T08:28:40.197Z,85
2017-05-21T08:29:40.500Z,85
2017-05-21T08:30:39.885Z,80
2017-05-21T08:31:40.493Z,80
2017-05-21T08:32:40.182Z,75
2017-05-21T08:33:40.184Z,75
2017-05-21T08:34:40.536Z,75
2017-05-21T08:35:40.175Z,75
2017-05-21T08:36:40.169Z,70
2017-05-21T08:37:40.171Z,70
2017-05-21T08:38:40.172Z,70
2017-05-21T08:39:40.470Z,70
2017-05-21T08:40:40.463Z,70
2017-05-21T08:41:40.461Z,70
2017-05-21T08:42:40.462Z,70
2017-05-21T08:43:40.467Z,70
2017-05-21T08:44:40.150Z,70
2017-05-21T08:45:40.758Z,70
2017-05-21T08:46:39.837Z,70
2017-05-21T08:47:40.143Z,65
2017-05-21T08:48:40.450Z,65
2017-05-21T08:49:40.129Z,65
2017-05-21T08:50:40.741Z,65
2017-05-21T08:51:40.430Z,65
2017-05-21T08:52:40.736Z,65
2017-05-21T08:53:40.741Z,65
2017-05-21T08:54:40.422Z,65
2017-05-21T08:55:40.458Z,65
2017-05-21T08:56:40.420Z,65
2017-05-21T08:57:40.110Z,65
2017-05-21T08:58:40.715Z,65
2017-05-21T08:59:40.712Z,65
2017-05-21T09:00:40.421Z,65
2017-05-21T09:01:40.092Z,65
2017-05-21T09:02:40.396Z,65
2017-05-21T09:03:40.391Z,65
2017-05-21T09:04:40.696Z,65
2017-05-21T09:05:40.385Z,65
2017-05-21T09:06:39.771Z,65
2017-05-21T09:07:40.692Z,65
2017-05-21T09:08:40.684Z,65
2017-05-21T09:09:40.064Z,65
2017-05-21T09:10:40.374Z,65
2017-05-21T09:11:40.673Z,65
2017-05-21T09:12:40.402Z,65
2017-05-21T09:13:40.668Z,65
2017-05-21T09:14:40.418Z,65
2017-05-21T09:15:40.360Z,65
2017-05-21T09:16:40.657Z,65
2017-05-21T09:17:40.657Z,65
2017-05-21T09:18:40.653Z,65
2017-05-21T09:19:40.647Z,65
2017-05-21T09:20:40.399Z,60
2017-05-21T09:21:40.642Z,60
2017-05-21T09:22:40.636Z,60
2017-05-21T09:23:40.635Z,60
2017-05-21T09:24:40.630Z,60
2017-05-21T09:25:40.315Z,60
2017-05-21T09:26:40.312Z,60
2017-05-21T09:27:40.625Z,60
2017-05-21T09:28:40.007Z,60
2017-05-21T09:29:40.312Z,60
2017-05-21T09:30:40.303Z,60
2017-05-21T09:31:40.605Z,60
2017-05-21T09:32:40.298Z,60
2017-05-21T09:33:39.989Z,60
2017-05-21T09:34:40.595Z,60
2017-05-21T09:35:40.600Z,60
2017-05-21T09:36:39.983Z,60
2017-05-21T09:37:39.976Z,60
2017-05-21T09:38:40.275Z,60
2017-05-21T09:39:40.271Z,60
2017-05-21T09:40:40.269Z,65
2017-05-21T09:41:39.953Z,60
2017-05-21T09:42:39.955Z,60
2017-05-21T09:43:40.256Z,60
2017-05-21T09:44:39.946Z,60
2017-05-21T09:45:40.255Z,60
2017-05-21T09:46:39.629Z,60
2017-05-21T09:47:40.551Z,60
2017-05-21T09:48:39.637Z,60
2017-05-21T09:49:40.238Z,60
2017-05-21T09:50:39.925Z,60
2017-05-21T09:51:40.531Z,55
2017-05-21T09:52:39.923Z,60
2017-05-21T09:53:40.528Z,55
2017-05-21T09:54:40.222Z,55
2017-05-21T09:55:39.907Z,55
2017-05-21T09:56:40.210Z,55
2017-05-21T09:57:39.900Z,55
2017-05-21T09:58:40.203Z,55
2017-05-21T09:59:40.206Z,55
2017-05-21T10:00:40.196Z,55
2017-05-21T10:01:40.191Z,55
2017-05-21T10:02:40.193Z,55
2017-05-21T10:03:40.493Z,55
2017-05-21T10:04:40.180Z,55
2017-05-21T10:05:40.483Z,55
2017-05-21T10:06:40.173Z,55
2017-05-21T10:07:39.866Z,55
2017-05-21T10:08:40.168Z,55
2017-05-21T10:09:40.161Z,55
2017-05-21T10:10:39.855Z,55
2017-05-21T10:11:40.464Z,55
2017-05-21T10:12:40.161Z,55
2017-05-21T10:13:40.158Z,55
2017-05-21T10:14:40.147Z,55
2017-05-21T10:15:40.139Z,55
2017-05-21T10:16:39.530Z,55
2017-05-21T10:17:40.446Z,55
2017-05-21T10:18:39.822Z,55
2017-05-21T10:19:40.130Z,55
2017-05-21T10:20:40.437Z,55
2017-05-21T10:21:39.809Z,55
2017-05-21T10:22:40.115Z,55
2017-05-21T10:23:40.122Z,55
2017-05-21T10:24:39.806Z,55
2017-05-21T10:25:39.495Z,55
2017-05-21T10:26:40.106Z,55
2017-05-21T10:27:40.408Z,55
2017-05-21T10:28:39.484Z,55
2017-05-21T10:29:40.090Z,55
2017-05-21T10:30:40.085Z,55
2017-05-21T10:31:40.085Z,55
2017-05-21T10:32:39.782Z,55
2017-05-21T10:33:40.075Z,55
2017-05-21T10:34:39.769Z,55
2017-05-21T10:35:40.071Z,55
2017-05-21T10:36:40.069Z,55
2017-05-21T10:37:40.063Z,55
2017-05-21T10:38:40.058Z,55
2017-05-21T10:39:39.443Z,55
2017-05-21T10:40:40.084Z,55
2017-05-21T10:41:40.046Z,55
2017-05-21T10:42:40.046Z,60
2017-05-21T10:43:40.345Z,60
2017-05-21T10:44:40.045Z,55
2017-05-21T10:45:40.038Z,55
2017-05-21T10:46:40.031Z,55
2017-05-21T10:47:40.022Z,55
2017-05-21T10:48:40.024Z,55
2017-05-21T10:49:40.024Z,55
2017-05-21T10:50:40.038Z,55
2017-05-21T10:51:39.701Z,55
2017-05-21T10:52:39.703Z,50
2017-05-21T10:53:39.394Z,45
2017-05-21T10:54:39.996Z,55
2017-05-21T10:55:39.992Z,50
2017-05-21T10:56:39.990Z,55
2017-05-21T10:57:39.682Z,50
2017-05-21T10:58:39.681Z,50
2017-05-21T10:59:39.978Z,50
2017-05-21T11:00:39.721Z,50
2017-05-21T11:01:39.360Z,50
2017-05-21T11:02:39.967Z,50
2017-05-21T11:03:39.965Z,50
2017-05-21T11:04:40.269Z,50
2017-05-21T11:05:40.271Z,50
2017-05-21T11:06:40.470Z,50
2017-05-21T11:07:39.650Z,50
2017-05-21T11:08:40.260Z,55
2017-05-21T11:09:39.641Z,55
2017-05-21T11:10:39.633Z,60
2017-05-21T11:11:40.244Z,60
2017-05-21T11:12:40.253Z,55
2017-05-21T11:13:40.237Z,50
2017-05-21T11:14:39.620Z,50
2017-05-21T11:15:39.621Z,50
2017-05-21T11:16:39.921Z,50
2017-05-21T11:17:39.918Z,50
2017-05-21T11:18:39.609Z,50
2017-05-21T11:19:40.211Z,50
2017-05-21T11:20:40.212Z,50
2017-05-21T11:21:39.589Z,50
2017-05-21T11:22:40.202Z,55
2017-05-21T11:23:40.202Z,55
2017-05-21T11:24:40.212Z,55
2017-05-21T11:25:39.902Z,55
2017-05-21T11:26:39.880Z,55
2017-05-21T11:27:39.642Z,60
2017-05-21T11:28:39.874Z,60
2017-05-21T11:29:39.874Z,60
2017-05-21T11:30:39.865Z,60
2017-05-21T11:31:39.865Z,65
2017-05-21T11:32:39.862Z,65
2017-05-21T11:33:39.552Z,70
2017-05-21T11:34:40.165Z,75
2017-05-21T11:35:39.846Z,85
2017-05-21T11:36:39.847Z,90
2017-05-21T11:37:39.856Z,90
2017-05-21T11:38:40.159Z,95
2017-05-21T11:39:40.145Z,100
2017-05-21T11:40:39.835Z,100
2017-05-21T11:41:39.831Z,95
2017-05-21T11:42:39.524Z,80
2017-05-21T11:43:39.536Z,70
2017-05-21T11:44:39.821Z,65
2017-05-21T11:45:39.820Z,65
2017-05-21T11:46:39.500Z,70
2017-05-21T11:47:39.499Z,75
2017-05-21T11:48:39.493Z,85
2017-05-21T11:49:39.799Z,85
2017-05-21T11:50:39.794Z,100
2017-05-21T11:51:39.790Z,115
2017-05-21T11:52:39.797Z,115
2017-05-21T11:53:39.781Z,120
2017-05-21T11:54:39.479Z,125
2017-05-21T11:55:39.166Z,130
2017-05-21T11:56:39.784Z,130
2017-05-21T11:57:39.467Z,120
2017-05-21T11:58:39.773Z,115
2017-05-21T11:59:39.764Z,115
2017-05-21T12:00:39.762Z,115
2017-05-21T12:01:39.449Z,120
2017-05-21T12:02:40.069Z,120
2017-05-21T12:03:39.750Z,110
2017-05-21T12:04:39.750Z,110
2017-05-21T12:05:38.825Z,110
2017-05-21T12:06:39.736Z,115
2017-05-21T12:07:39.739Z,120
2017-05-21T12:08:38.826Z,130
2017-05-21T12:09:39.730Z,120
2017-05-21T12:10:39.724Z,115
2017-05-21T12:11:39.723Z,115
2017-05-21T12:12:39.418Z,120
2017-05-21T12:13:39.719Z,125
2017-05-21T12:14:39.711Z,125
2017-05-21T12:15:39.405Z,125
2017-05-21T12:16:39.706Z,130
2017-05-21T12:17:39.099Z,130
2017-05-21T12:18:39.087Z,130
2017-05-21T12:19:39.391Z,125
2017-05-21T12:20:39.693Z,130
2017-05-21T12:21:39.695Z,130
2017-05-21T12:22:40.003Z,140
2017-05-21T12:23:39.684Z,135
2017-05-21T12:24:39.380Z,130
2017-05-21T12:25:39.683Z,135
2017-05-21T12:26:39.671Z,140
2017-05-21T12:27:39.065Z,140
2017-05-21T12:28:39.669Z,140
2017-05-21T12:29:39.673Z,135
2017-05-21T12:30:39.666Z,135
2017-05-21T12:31:39.353Z,135
2017-05-21T12:32:39.354Z,135
2017-05-21T12:33:39.959Z,135
2017-05-21T12:34:39.350Z,130
2017-05-21T12:35:39.647Z,125
2017-05-21T12:36:39.952Z,125
2017-05-21T12:37:39.648Z,115
2017-05-21T12:38:39.639Z,105
2017-05-21T12:39:39.691Z,100
2017-05-21T12:40:39.636Z,90
2017-05-21T12:41:39.631Z,80
2017-05-21T12:42:39.323Z,75
2017-05-21T12:43:39.321Z,75
2017-05-21T12:44:39.626Z,70
2017-05-21T12:45:39.617Z,70
2017-05-21T12:46:39.612Z,70
2017-05-21T12:47:39.612Z,75
2017-05-21T12:48:39.610Z,85
2017-05-21T12:49:39.317Z,80
2017-05-21T12:50:39.604Z,80
2017-05-21T12:51:39.599Z,85
2017-05-21T12:52:39.598Z,90
2017-05-21T12:53:39.594Z,95
2017-05-21T12:54:39.598Z,100
2017-05-21T12:55:39.587Z,100
2017-05-21T12:56:39.276Z,110
2017-05-21T12:57:39.579Z,110
2017-05-21T12:58:39.579Z,115
2017-05-21T12:59:39.579Z,120
2017-05-21T13:00:39.569Z,120
2017-05-21T13:01:39.877Z,125
2017-05-21T13:02:39.871Z,120
2017-05-21T13:03:39.563Z,120
2017-05-21T13:04:39.928Z,125
2017-05-21T13:05:39.864Z,125
2017-05-21T13:06:39.859Z,130
2017-05-21T13:07:39.865Z,135
2017-05-21T13:08:39.545Z,130
2017-05-21T13:09:39.854Z,125
2017-05-21T13:10:39.853Z,125
2017-05-21T13:11:39.838Z,125
2017-05-21T13:12:39.843Z,125
2017-05-21T13:13:39.883Z,130
2017-05-21T13:14:39.833Z,130
2017-05-21T13:15:39.827Z,130
2017-05-21T13:16:39.825Z,125
2017-05-21T13:17:39.833Z,120
2017-05-21T13:18:39.517Z,115
2017-05-21T13:19:39.210Z,115
2017-05-21T13:20:39.505Z,110
2017-05-21T13:21:39.503Z,110
2017-05-21T13:22:39.501Z,110
2017-05-21T13:23:39.196Z,110
2017-05-21T13:24:39.493Z,115
2017-05-21T13:25:39.803Z,115
2017-05-21T13:26:39.799Z,115
2017-05-21T13:27:39.179Z,115
2017-05-21T13:28:39.486Z,110
2017-05-21T13:29:39.487Z,110
2017-05-21T13:30:39.784Z,110
2017-05-21T13:31:39.480Z,110
2017-05-21T13:32:39.171Z,110
2017-05-21T13:33:39.167Z,110
2017-05-21T13:34:38.540Z,115
2017-05-21T13:35:38.851Z,115
2017-05-21T13:36:39.155Z,115
2017-05-21T13:37:39.458Z,120
2017-05-21T13:38:38.841Z,115
2017-05-21T13:39:39.453Z,120
2017-05-21T13:40:39.449Z,115
2017-05-21T13:41:38.829Z,115
2017-05-21T13:42:39.132Z,120
2017-05-21T13:43:39.133Z,115
2017-05-21T13:44:38.510Z,115
2017-05-21T13:45:39.125Z,120
2017-05-21T13:46:39.434Z,120
2017-05-21T13:47:39.423Z,125
2017-05-21T13:48:39.423Z,125
2017-05-21T13:49:39.425Z,125
2017-05-21T13:50:39.120Z,130
2017-05-21T13:51:39.726Z,125
2017-05-21T13:52:39.412Z,125
2017-05-21T13:53:39.409Z,125
2017-05-21T13:54:38.481Z,125
2017-05-21T13:55:39.706Z,125
2017-05-21T13:56:39.706Z,115
2017-05-21T13:57:39.701Z,105
2017-05-21T13:58:39.705Z,100
2017-05-21T13:59:39.693Z,95
2017-05-21T14:00:39.079Z,90
2017-05-21T14:01:39.384Z,85
2017-05-21T14:02:39.081Z,85
2017-05-21T14:03:39.384Z,80
2017-05-21T14:04:39.067Z,80
2017-05-21T14:05:39.068Z,80
2017-05-21T14:06:39.063Z,85
2017-05-21T14:07:39.370Z,85
2017-05-21T14:08:39.365Z,85
2017-05-21T14:09:39.057Z,85
2017-05-21T14:10:39.051Z,85
2017-05-21T14:11:39.658Z,90
2017-05-21T14:12:39.354Z,90